Time;durP1;ratioP1;P1;durP2;ratioP2;P2;SDS_P1;SDS_P2;PMS_P1;PMS_P2;Temp;Humidity;BMP_temperature;BMP_pressure;BME280_temperature;BME280_humidity;BME280_pressure;Samples;Min_cycle;Max_cycle;Signal;HPM_P1;HPM_P2
2022/04/21 00:02:14;;;;;;;;;6.00;6.00;;;;;17.77;32.45;100724.44;5076831;28;45382;-81
2022/04/21 00:04:40;;;;;;;;;5.00;5.00;;;;;17.71;32.46;100715.84;5076963;28;45250;-82
2022/04/21 00:07:05;;;;;;;;;5.33;5.00;;;;;17.33;33.04;100656.69;5077527;28;45363;-82
2022/04/21 00:09:31;;;;;;;;;3.00;3.00;;;;;17.45;32.84;100677.34;5095482;27;45932;-82
2022/04/21 00:11:56;;;;;;;;;8.33;7.00;;;;;17.23;32.66;100647.53;5097565;27;45327;-82
2022/04/21 00:14:21;;;;;;;;;7.00;6.00;;;;;17.52;32.83;100697.47;5097109;27;45318;-82
2022/04/21 00:16:47;;;;;;;;;6.00;6.00;;;;;17.54;32.96;100705.44;5079457;27;45567;-82
2022/04/21 00:19:12;;;;;;;;;8.33;7.33;;;;;17.13;33.01;100651.88;5097059;27;47764;-82
2022/04/21 00:24:21;;;;;;;;;6.00;6.00;;;;;17.42;33.39;100709.91;5077190;28;45320;-82
2022/04/21 00:26:46;;;;;;;;;11.67;6.67;;;;;17.37;33.23;100698.59;5077767;27;45396;-82
2022/04/21 00:29:12;;;;;;;;;6.67;5.33;;;;;17.36;33.73;100699.56;5099081;27;45377;-82
2022/04/21 00:31:38;;;;;;;;;5.00;5.00;;;;;17.19;33.45;100673.00;5100867;27;45399;-82
2022/04/21 00:34:03;;;;;;;;;2.33;1.00;;;;;17.22;33.85;100689.78;5100875;27;45371;-82
2022/04/21 00:36:28;;;;;;;;;7.00;7.00;;;;;16.91;34.08;100642.69;5087110;27;45513;-81
2022/04/21 00:38:53;;;;;;;;;6.00;6.00;;;;;17.03;34.02;100662.47;5080424;28;46159;-81
2022/04/21 00:41:19;;;;;;;;;7.33;7.33;;;;;17.18;34.13;100693.66;5080272;28;45248;-81
2022/04/21 00:43:44;;;;;;;;;5.00;5.00;;;;;17.15;34.21;100690.34;5080674;28;45188;-81
2022/04/21 00:46:19;;;;;;;;;7.00;7.00;;;;;17.09;34.41;100675.47;5062416;28;45357;-81
2022/04/21 00:48:46;;;;;;;;;11.67;8.67;;;;;16.88;34.70;100648.28;5083095;27;45483;-81
2022/04/21 00:51:12;;;;;;;;;6.00;6.00;;;;;16.66;34.50;100620.16;5082211;27;45490;-81
2022/04/21 00:53:39;;;;;;;;;6.67;5.00;;;;;16.99;34.60;100693.28;5086784;27;45306;-81
2022/04/21 00:56:05;;;;;;;;;6.00;6.00;;;;;16.87;34.82;100676.16;5080481;28;45485;-81
2022/04/21 00:58:31;;;;;;;;;11.33;8.00;;;;;16.94;34.43;100684.66;5079862;28;46103;-81
2022/04/21 01:00:57;;;;;;;;;8.00;8.00;;;;;16.77;34.64;100662.47;5079867;28;45433;-81
2022/04/21 01:03:22;;;;;;;;;9.00;7.67;;;;;16.64;34.92;100635.56;5079895;27;45323;-81
2022/04/21 01:05:49;;;;;;;;;8.67;8.67;;;;;16.77;34.51;100661.63;5080583;28;45410;-81
2022/04/21 01:08:14;;;;;;;;;8.33;5.67;;;;;16.76;34.44;100654.50;5079868;27;45414;-81
2022/04/21 01:10:41;;;;;;;;;8.67;8.33;;;;;16.43;33.88;100612.84;5081350;27;45265;-81
2022/04/21 01:13:08;;;;;;;;;8.33;6.00;;;;;16.66;34.15;100638.16;5100524;27;45333;-81
2022/04/21 01:15:38;;;;;;;;;5.00;5.00;;;;;16.34;33.66;100587.50;5100631;27;45576;-81
2022/04/21 01:18:04;;;;;;;;;5.00;5.00;;;;;16.65;34.12;100641.81;5108075;27;46081;-81
2022/04/21 01:20:30;;;;;;;;;11.67;7.67;;;;;16.65;34.04;100637.28;5120460;27;45387;-81
2022/04/21 01:22:55;;;;;;;;;9.00;7.67;;;;;16.73;33.84;100649.34;5094667;27;45519;-81
2022/04/21 01:25:21;;;;;;;;;10.67;9.67;;;;;16.72;34.01;100653.00;5080237;28;45568;-81
2022/04/21 01:27:49;;;;;;;;;9.67;9.00;;;;;16.71;34.06;100660.19;5079451;28;45473;-81
2022/04/21 01:30:15;;;;;;;;;9.67;8.33;;;;;16.64;33.86;100646.31;5079411;28;45483;-81
2022/04/21 01:32:43;;;;;;;;;6.00;6.00;;;;;16.62;33.76;100658.16;5079090;28;45318;-81
2022/04/21 01:35:09;;;;;;;;;5.33;4.00;;;;;16.49;33.73;100625.03;5080094;28;45499;-81
2022/04/21 01:43:04;;;;;;;;;7.67;6.33;;;;;16.48;33.99;100642.13;5079392;28;45234;-81
2022/04/21 01:45:30;;;;;;;;;6.00;6.00;;;;;16.49;33.58;100644.72;5079464;28;45466;-81
2022/04/21 01:47:56;;;;;;;;;5.33;4.00;;;;;16.52;33.98;100649.03;5079231;28;46241;-81
2022/04/21 01:50:23;;;;;;;;;5.00;5.00;;;;;16.36;34.08;100625.88;5079407;28;45386;-81
2022/04/21 01:52:48;;;;;;;;;6.33;6.33;;;;;16.45;34.30;100636.00;5096076;27;45492;-81
2022/04/21 01:55:13;;;;;;;;;8.67;5.33;;;;;16.41;34.42;100639.00;5088945;27;45441;-81
2022/04/21 01:57:39;;;;;;;;;4.00;4.00;;;;;16.15;34.64;100600.47;5099661;27;46170;-81
2022/04/21 02:00:05;;;;;;;;;6.67;5.67;;;;;16.27;34.78;100628.34;5099261;27;45311;-81
2022/04/21 02:02:32;;;;;;;;;6.67;6.00;;;;;16.24;35.03;100622.22;5099698;27;45380;-81
2022/04/21 02:04:59;;;;;;;;;8.00;8.00;;;;;16.20;34.69;100625.22;5099739;27;45520;-81
2022/04/21 02:07:25;;;;;;;;;8.33;6.33;;;;;16.21;35.06;100621.56;5099548;27;45388;-81
2022/04/21 02:09:50;;;;;;;;;6.00;5.00;;;;;16.18;35.33;100619.13;5099503;27;45514;-81
2022/04/21 02:12:15;;;;;;;;;3.33;2.00;;;;;16.18;35.59;100633.41;5099723;27;45508;-81
2022/04/21 02:14:41;;;;;;;;;8.00;8.00;;;;;16.01;36.43;100606.81;5093634;27;45544;-81
2022/04/21 02:17:06;;;;;;;;;5.33;5.33;;;;;15.99;37.08;100601.56;5079559;27;46031;-81
2022/04/21 02:19:32;;;;;;;;;7.67;7.33;;;;;16.15;37.01;100630.06;5080862;27;45603;-81
2022/04/21 02:21:58;;;;;;;;;8.00;8.00;;;;;15.84;37.47;100581.09;5078827;28;45263;-81
2022/04/21 02:24:23;;;;;;;;;8.00;8.00;;;;;15.95;37.51;100600.03;5095827;27;45413;-81
2022/04/21 02:26:48;;;;;;;;;7.67;7.67;;;;;16.01;38.13;100610.38;5098939;27;46237;-81
2022/04/21 02:29:14;;;;;;;;;10.33;7.67;;;;;15.94;37.97;100605.50;5098795;27;47778;-81
2022/04/21 02:31:39;;;;;;;;;9.67;9.00;;;;;15.86;38.50;100589.06;5099087;27;45309;-81
2022/04/21 02:34:04;;;;;;;;;8.00;7.67;;;;;15.89;38.90;100600.44;5076914;28;45567;-81
2022/04/21 02:36:30;;;;;;;;;10.33;8.33;;;;;15.62;38.84;100557.50;5078901;28;46138;-81
2022/04/21 02:38:55;;;;;;;;;8.00;8.00;;;;;15.82;38.96;100588.38;5078302;28;45393;-81
2022/04/21 02:41:20;;;;;;;;;9.00;9.00;;;;;15.77;39.07;100588.72;5078675;28;47048;-81
2022/04/21 02:43:46;;;;;;;;;8.33;8.33;;;;;15.79;39.17;100584.09;5078718;28;45424;-81
2022/04/21 02:46:12;;;;;;;;;11.00;10.00;;;;;15.83;39.21;100590.13;5059868;28;49134;-81
2022/04/21 02:48:38;;;;;;;;;9.33;8.33;;;;;15.65;39.27;100567.16;5060480;28;45391;-81
2022/04/21 02:51:03;;;;;;;;;4.67;4.67;;;;;15.47;39.60;100542.38;5063353;28;45764;-81
2022/04/21 02:59:00;;;;;;;;;9.33;8.33;;;;;15.36;40.05;100545.81;5098093;27;45474;-81
2022/04/21 03:01:25;;;;;;;;;10.00;8.33;;;;;15.73;39.98;100603.34;5080169;27;45588;-81
2022/04/21 03:03:51;;;;;;;;;9.33;7.33;;;;;15.59;40.32;100589.91;5088143;27;45412;-81
2022/04/21 03:06:16;;;;;;;;;11.33;9.00;;;;;15.69;40.07;100607.16;5098478;27;45416;-82
2022/04/21 03:08:41;;;;;;;;;8.67;8.67;;;;;15.68;40.44;100605.41;5089684;27;45440;-81
2022/04/21 03:11:07;;;;;;;;;11.00;9.00;;;;;15.65;40.79;100599.41;5080572;27;45439;-81
2022/04/21 03:13:32;;;;;;;;;8.67;7.00;;;;;15.47;40.86;100575.47;5097790;27;45405;-81
2022/04/21 03:15:57;;;;;;;;;11.00;11.00;;;;;15.59;40.83;100601.53;5085623;27;45475;-81
2022/04/21 03:18:23;;;;;;;;;8.67;8.67;;;;;15.31;40.85;100558.66;5086098;27;45421;-81
2022/04/21 03:26:17;;;;;;;;;9.33;9.33;;;;;15.28;41.53;100553.50;5098405;27;45885;-81
2022/04/21 03:28:43;;;;;;;;;13.00;9.00;;;;;15.17;41.74;100532.72;5090201;27;45421;-82
2022/04/21 03:31:09;;;;;;;;;9.33;8.00;;;;;15.24;41.51;100554.66;5096130;27;45289;-81
2022/04/21 03:33:34;;;;;;;;;10.33;8.33;;;;;15.30;41.28;100578.44;5080681;27;45301;-81
2022/04/21 03:36:00;;;;;;;;;12.67;9.33;;;;;15.27;41.55;100568.75;5097901;27;45440;-81
2022/04/21 03:38:25;;;;;;;;;11.33;10.00;;;;;15.12;41.71;100545.59;5079921;27;45755;-81
2022/04/21 03:40:50;;;;;;;;;13.33;11.33;;;;;15.25;41.70;100569.84;5079932;27;45377;-81
2022/04/21 03:43:16;;;;;;;;;12.00;12.00;;;;;15.23;41.85;100577.97;5079826;27;45224;-82
2022/04/21 03:45:41;;;;;;;;;12.67;12.00;;;;;15.22;41.83;100578.06;5088058;27;45188;-81
2022/04/21 03:48:06;;;;;;;;;12.33;10.33;;;;;15.05;41.80;100555.88;5059493;27;45850;-81
2022/04/21 03:50:34;;;;;;;;;13.67;12.00;;;;;14.96;41.84;100545.75;5082021;27;45269;-81
2022/04/21 03:53:00;;;;;;;;;12.67;10.67;;;;;15.14;41.71;100571.38;5095763;27;45504;-81
2022/04/21 03:55:25;;;;;;;;;15.00;11.00;;;;;15.14;41.71;100581.25;5091154;27;45336;-81
2022/04/21 03:57:51;;;;;;;;;16.00;12.00;;;;;14.88;41.84;100538.19;5093810;27;45414;-81
2022/04/21 04:00:17;;;;;;;;;16.33;14.00;;;;;14.85;41.44;100548.28;5097205;27;45415;-81
2022/04/21 04:02:42;;;;;;;;;13.33;10.00;;;;;15.00;41.81;100582.16;5079072;27;45571;-81
2022/04/21 04:05:08;;;;;;;;;11.00;11.00;;;;;15.06;41.73;100584.47;5078668;27;53677;-81
2022/04/21 04:13:01;;;;;;;;;10.67;9.33;;;;;15.02;39.77;100592.81;5090552;27;45501;-81
2022/04/21 04:15:26;;;;;;;;;11.33;9.00;;;;;14.94;39.37;100575.38;5080655;27;45484;-81
2022/04/21 04:17:51;;;;;;;;;9.67;9.67;;;;;15.04;38.85;100590.88;5078587;27;45710;-81
2022/04/21 04:20:17;;;;;;;;;9.33;8.00;;;;;15.01;37.98;100583.91;5085547;27;45428;-81
2022/04/21 04:22:42;;;;;;;;;5.33;5.33;;;;;14.95;37.99;100562.81;5086651;27;45411;-81
2022/04/21 04:25:11;;;;;;;;;4.00;4.00;;;;;15.04;37.05;100583.69;5079352;27;45344;-82
2022/04/21 04:27:37;;;;;;;;;7.67;7.67;;;;;15.05;36.69;100585.41;5094955;27;45376;-82
2022/04/21 04:30:08;;;;;;;;;8.33;6.33;;;;;15.03;36.36;100578.41;5088327;27;45388;-82
2022/04/21 04:32:34;;;;;;;;;5.67;5.67;;;;;14.91;36.51;100550.56;5078035;27;45421;-81
2022/04/21 04:34:59;;;;;;;;;5.67;5.67;;;;;15.11;35.91;100581.47;5075128;27;48300;-81
2022/04/21 04:37:24;;;;;;;;;7.00;5.00;;;;;14.99;35.60;100565.19;5077404;27;45363;-81
2022/04/21 04:39:50;;;;;;;;;6.67;6.67;;;;;15.14;35.48;100586.63;5083759;27;45468;-81
2022/04/21 04:42:17;;;;;;;;;8.00;8.00;;;;;14.95;35.24;100563.66;5087029;27;45318;-81
2022/04/21 04:44:47;;;;;;;;;7.33;7.33;;;;;15.18;35.19;100596.22;5091160;27;45248;-81
2022/04/21 04:47:13;;;;;;;;;7.33;7.33;;;;;15.20;34.97;100605.03;5078744;27;45622;-81
2022/04/21 04:49:39;;;;;;;;;5.33;5.33;;;;;15.12;34.76;100592.09;5065507;27;45464;-81
2022/04/21 04:52:05;;;;;;;;;6.00;6.00;;;;;15.08;35.15;100579.00;5096376;27;45566;-81
2022/04/21 04:54:31;;;;;;;;;5.00;5.00;;;;;15.25;35.36;100602.91;5066439;28;47243;-81
2022/04/21 04:56:57;;;;;;;;;7.33;6.67;;;;;15.18;34.73;100597.06;5092201;27;45262;-81
2022/04/21 04:59:23;;;;;;;;;6.33;6.33;;;;;15.15;35.02;100588.38;5093051;27;45320;-81
2022/04/21 05:01:48;;;;;;;;;7.00;7.00;;;;;15.18;35.21;100596.22;5082404;27;45500;-81
2022/04/21 05:04:16;;;;;;;;;8.00;8.00;;;;;15.24;34.79;100609.25;5083111;27;45456;-81
2022/04/21 05:06:46;;;;;;;;;5.00;5.00;;;;;15.29;35.02;100614.28;5088717;27;45763;-84
2022/04/21 05:09:16;;;;;;;;;5.67;5.67;;;;;15.28;35.34;100613.44;5095342;27;45471;-80
2022/04/21 05:11:43;;;;;;;;;8.67;6.33;;;;;15.07;35.30;100586.16;5078770;27;45431;-81
2022/04/21 05:14:10;;;;;;;;;8.67;7.67;;;;;15.28;35.33;100615.28;5081487;27;46380;-82
2022/04/21 05:16:37;;;;;;;;;0.00;0.00;;;;;15.27;35.60;100618.94;5094796;27;45413;-81
2022/04/21 05:19:04;;;;;;;;;9.00;5.00;;;;;15.08;35.61;100581.69;5092433;27;45356;-82
2022/04/21 05:21:30;;;;;;;;;8.00;6.33;;;;;15.20;35.85;100605.88;5069477;27;45577;-83
2022/04/21 05:23:57;;;;;;;;;5.33;5.00;;;;;15.26;35.61;100618.03;5086800;27;45708;-83
2022/04/21 05:26:24;;;;;;;;;10.33;7.33;;;;;15.08;35.39;100592.41;5087834;27;45409;-83
2022/04/21 05:28:50;;;;;;;;;6.67;5.67;;;;;15.19;35.69;100600.59;5076960;27;45594;-85
2022/04/21 05:31:16;;;;;;;;;10.00;5.67;;;;;15.30;35.41;100616.88;5079183;27;45689;-84
2022/04/21 05:33:42;;;;;;;;;5.00;5.00;;;;;15.33;35.23;100616.69;5061923;27;47953;-84
2022/04/21 05:36:08;;;;;;;;;7.33;7.33;;;;;15.16;35.04;100582.03;5093560;27;45731;-85
2022/04/21 05:38:34;;;;;;;;;8.33;8.00;;;;;15.27;34.75;100582.19;5088344;27;45240;-84
2022/04/21 05:41:01;;;;;;;;;5.33;4.33;;;;;15.31;34.99;100596.25;5074270;27;45471;-84
2022/04/21 05:43:47;;;;;;;;;8.33;6.33;;;;;15.40;35.00;100606.41;5089653;27;45525;-83
2022/04/21 05:46:14;;;;;;;;;7.33;7.33;;;;;15.38;35.40;100600.25;5093919;27;45548;-83
2022/04/21 05:48:41;;;;;;;;;6.33;6.33;;;;;15.32;35.14;100579.19;5086727;27;45391;-82
2022/04/21 05:51:09;;;;;;;;;7.00;7.00;;;;;15.45;35.40;100596.19;5094463;27;45393;-82
2022/04/21 05:53:36;;;;;;;;;2.33;2.00;;;;;15.52;35.06;100594.88;5089953;27;46172;-82
2022/04/21 05:56:04;;;;;;;;;7.67;6.00;;;;;15.54;35.09;100602.78;5073845;27;45472;-82
2022/04/21 05:58:30;;;;;;;;;7.67;6.67;;;;;15.53;34.98;100603.78;5088592;27;45476;-82
2022/04/21 06:00:57;;;;;;;;;6.33;6.33;;;;;15.54;34.95;100603.66;5089952;27;45449;-82
2022/04/21 06:03:22;;;;;;;;;9.00;8.00;;;;;15.53;34.92;100601.94;5087043;27;45373;-82
2022/04/21 06:05:48;;;;;;;;;10.00;8.33;;;;;15.34;34.92;100572.75;5084658;27;45392;-82
2022/04/21 06:08:13;;;;;;;;;11.67;9.00;;;;;15.26;35.32;100558.97;5092621;27;45598;-83
2022/04/21 06:10:38;;;;;;;;;9.67;7.00;;;;;15.54;35.05;100597.41;5095143;27;45769;-82
2022/04/21 06:13:04;;;;;;;;;7.33;6.00;;;;;15.56;35.28;100603.56;5080939;27;48724;-82
2022/04/21 06:15:30;;;;;;;;;8.33;6.67;;;;;15.35;35.23;100563.72;5070973;27;45707;-83
2022/04/21 06:17:57;;;;;;;;;7.67;5.33;;;;;15.54;35.42;100581.31;5079158;27;45530;-83
2022/04/21 06:20:23;;;;;;;;;7.33;5.33;;;;;15.66;35.30;100591.22;5062398;27;45509;-83
2022/04/21 06:22:48;;;;;;;;;7.33;7.33;;;;;15.65;35.07;100594.88;5075570;28;46050;-84
2022/04/21 06:25:13;;;;;;;;;7.33;6.33;;;;;15.58;35.00;100586.38;5085333;27;45463;-84
2022/04/21 06:27:38;;;;;;;;;6.00;6.00;;;;;15.44;35.13;100564.94;5081323;27;45640;-85
2022/04/21 06:30:04;;;;;;;;;9.67;7.33;;;;;15.58;35.16;100581.00;5086596;27;45638;-85
2022/04/21 06:32:30;;;;;;;;;6.33;6.00;;;;;15.67;35.16;100597.47;5084651;27;46210;-86
2022/04/21 06:34:57;;;;;;;;;6.00;5.67;;;;;15.53;35.22;100563.47;5066258;27;45541;-86
2022/04/21 06:37:22;;;;;;;;;9.00;6.00;;;;;15.55;35.21;100554.34;5080817;27;45246;-86
2022/04/21 06:39:47;;;;;;;;;9.00;6.67;;;;;15.51;35.16;100546.59;5071363;27;45257;-85
2022/04/21 06:42:13;;;;;;;;;5.67;5.67;;;;;15.65;35.31;100569.84;5082681;27;46064;-85
2022/04/21 06:50:07;;;;;;;;;7.33;6.00;;;;;15.91;35.25;100584.22;5091104;27;45489;-83
2022/04/21 06:52:33;;;;;;;;;5.00;5.00;;;;;15.97;35.23;100581.97;5079053;27;47017;-84
2022/04/21 06:54:58;;;;;;;;;6.00;6.00;;;;;15.99;35.30;100585.44;5080625;27;45321;-84
2022/04/21 06:57:24;;;;;;;;;8.33;8.33;;;;;15.90;34.96;100558.31;5090885;27;45179;-85
2022/04/21 06:59:50;;;;;;;;;19.00;16.00;;;;;15.86;35.17;100556.81;5093568;27;45467;-86
2022/04/21 07:02:16;;;;;;;;;8.33;6.67;;;;;15.73;35.12;100535.28;5077489;27;48208;-85
2022/04/21 07:04:42;;;;;;;;;6.00;6.00;;;;;16.09;36.00;100595.53;5089857;27;45546;-85
2022/04/21 07:07:07;;;;;;;;;10.33;8.00;;;;;16.13;36.00;100591.66;5085147;27;45465;-85
2022/04/21 07:09:32;;;;;;;;;8.67;7.33;;;;;16.17;36.87;100582.41;5060279;28;45553;-84
2022/04/21 07:11:59;;;;;;;;;5.33;5.33;;;;;16.00;36.17;100543.28;5086835;27;46102;-84
2022/04/21 07:14:24;;;;;;;;;8.67;8.33;;;;;16.15;35.08;100566.38;5079794;27;45471;-84
2022/04/21 07:16:49;;;;;;;;;8.33;8.33;;;;;15.92;35.24;100516.94;5081452;27;45392;-85
2022/04/21 07:19:15;;;;;;;;;6.00;6.00;;;;;16.10;35.09;100532.72;5090399;27;45281;-84
2022/04/21 07:21:40;;;;;;;;;8.00;8.00;;;;;16.09;35.52;100505.00;5086556;27;46665;-84
2022/04/21 07:24:05;;;;;;;;;8.33;6.00;;;;;16.06;35.42;100501.63;5079203;27;45413;-84
2022/04/21 07:26:31;;;;;;;;;5.67;5.00;;;;;16.30;37.12;100523.25;5088862;27;45376;-85
2022/04/21 07:28:57;;;;;;;;;7.00;7.00;;;;;16.11;35.42;100481.53;5103550;27;45258;-84
2022/04/21 07:31:22;;;;;;;;;6.00;6.00;;;;;16.71;35.86;100560.63;5084872;27;45507;-85
2022/04/21 07:33:48;;;;;;;;;6.00;5.00;;;;;16.52;35.24;100520.72;5089526;27;45463;-84
2022/04/21 07:36:13;;;;;;;;;7.67;7.67;;;;;16.72;35.06;100542.66;5088232;27;45486;-84
2022/04/21 07:38:38;;;;;;;;;6.33;5.67;;;;;16.94;35.71;100563.50;5086920;27;45491;-85
2022/04/21 07:41:04;;;;;;;;;7.67;7.67;;;;;17.03;35.54;100561.00;5077270;27;48013;-86
2022/04/21 07:43:32;;;;;;;;;7.33;7.33;;;;;16.57;35.20;100463.91;5084944;27;45416;-85
2022/04/21 07:45:57;;;;;;;;;8.67;7.67;;;;;16.65;34.31;100466.91;5090521;27;45410;-85
2022/04/21 07:48:23;;;;;;;;;7.67;7.67;;;;;16.72;34.42;100456.53;5091205;27;45686;-86
2022/04/21 07:50:49;;;;;;;;;9.67;8.33;;;;;16.66;33.68;100428.25;5093899;27;46139;-87
2022/04/21 07:53:15;;;;;;;;;6.00;6.00;;;;;16.99;34.17;100475.19;5080277;27;45448;-85
2022/04/21 07:55:48;;;;;;;;;5.67;5.33;;;;;17.07;35.22;100465.56;5082896;27;45523;-86
2022/04/21 07:58:14;;;;;;;;;5.33;5.33;;;;;17.68;33.67;100546.25;5075097;27;45610;-86
2022/04/21 08:00:40;;;;;;;;;10.00;8.33;;;;;17.41;33.49;100483.69;5079834;27;45509;-86
2022/04/21 08:03:07;;;;;;;;;7.00;7.00;;;;;17.59;33.81;100498.44;5069191;27;45475;-86
2022/04/21 08:05:33;;;;;;;;;10.33;8.67;;;;;17.99;33.82;100549.28;5098343;27;45375;-86
2022/04/21 08:07:59;;;;;;;;;11.33;9.33;;;;;17.73;34.96;100483.91;5071513;28;45651;-86
2022/04/21 08:10:28;;;;;;;;;9.33;7.00;;;;;17.72;32.89;100469.56;5090328;27;45572;-85
2022/04/21 08:12:54;;;;;;;;;8.33;7.00;;;;;18.37;33.29;100542.72;5065640;28;45527;-86
2022/04/21 08:15:25;;;;;;;;;7.67;7.67;;;;;18.51;32.74;100536.22;5059585;28;45411;-86
2022/04/21 08:17:55;;;;;;;;;11.67;10.00;;;;;18.26;33.07;100484.22;5077058;27;45504;-87
2022/04/21 08:20:22;;;;;;;;;15.00;11.67;;;;;18.38;32.67;100479.69;5084096;27;46663;-89
2022/04/21 08:22:48;;;;;;;;;13.00;11.33;;;;;18.22;38.29;100409.91;5074269;27;45978;-86
2022/04/21 08:33:27;;;;;;;;;7.67;7.67;;;;;20.56;32.08;100536.13;5089349;27;45327;-86
2022/04/21 08:35:58;;;;;;;;;10.67;6.67;;;;;21.03;30.73;100533.69;5089948;27;45383;-86
2022/04/21 08:38:27;;;;;;;;;8.33;8.33;;;;;21.37;30.53;100531.41;5077422;27;45427;-85
2022/04/21 08:41:07;;;;;;;;;8.67;8.67;;;;;21.60;30.82;100514.88;5086764;27;45908;-85
2022/04/21 08:43:37;;;;;;;;;9.67;8.67;;;;;21.90;30.41;100486.72;5061163;27;46062;-85
2022/04/21 08:46:03;;;;;;;;;8.67;7.33;;;;;22.30;28.79;100494.59;5086666;27;45657;-86
2022/04/21 08:48:30;;;;;;;;;6.33;6.33;;;;;22.92;29.13;100523.88;5074972;27;45440;-84
2022/04/21 08:50:55;;;;;;;;;7.00;7.00;;;;;23.13;28.23;100516.34;5044209;28;47615;-87
2022/04/21 08:53:24;;;;;;;;;6.33;6.33;;;;;23.36;27.80;100527.59;5057385;28;45399;-86
2022/04/21 08:55:51;;;;;;;;;6.67;6.67;;;;;23.13;27.95;100464.69;5044769;28;45437;-86
2022/04/21 08:58:16;;;;;;;;;9.67;8.00;;;;;23.80;26.79;100519.50;5043257;28;45465;-86
2022/04/21 09:00:43;;;;;;;;;9.00;9.00;;;;;23.71;27.59;100468.72;5058420;28;45669;-87
2022/04/21 09:03:10;;;;;;;;;9.33;8.00;;;;;24.17;26.93;100510.22;5049876;28;45423;-86
2022/04/21 09:05:35;;;;;;;;;9.33;5.67;;;;;24.22;25.40;100534.28;5054291;28;45451;-87
2022/04/21 09:08:01;;;;;;;;;7.33;7.33;;;;;24.10;25.76;100528.25;5043785;28;45350;-87
2022/04/21 09:10:29;;;;;;;;;7.67;7.00;;;;;24.08;25.92;100532.97;5041430;28;48051;-86
2022/04/21 09:13:01;;;;;;;;;8.00;8.00;;;;;23.15;26.54;100375.63;5042420;28;45432;-85
2022/04/21 09:15:32;;;;;;;;;7.00;7.00;;;;;24.20;25.90;100526.25;5046761;28;45597;-86
2022/04/21 09:18:06;;;;;;;;;6.33;6.33;;;;;24.22;26.47;100498.84;5049251;28;45559;-87
2022/04/21 09:20:36;;;;;;;;;4.00;4.00;;;;;24.66;26.44;100519.72;5051716;28;46298;-86
2022/04/21 09:23:05;;;;;;;;;8.33;6.33;;;;;23.86;26.05;100332.06;5046891;28;45543;-86
2022/04/21 09:25:52;;;;;;;;;5.33;5.33;;;;;25.00;24.92;100519.63;5044757;28;45512;-87
2022/04/21 09:28:25;;;;;;;;;8.67;7.67;;;;;24.31;25.45;100361.69;5046298;28;45869;-86
2022/04/21 09:30:54;;;;;;;;;3.00;3.00;;;;;24.80;25.28;100405.44;5049600;28;45484;-87
2022/04/21 09:33:44;;;;;;;;;8.00;6.00;;;;;25.40;24.48;100505.28;5052688;28;45881;-86
2022/04/21 09:36:10;;;;;;;;;12.00;12.00;;;;;24.89;25.11;100428.13;5041859;28;45334;-89
2022/04/21 09:38:37;;;;;;;;;8.00;5.67;;;;;25.16;24.94;100447.91;5046865;28;45762;-90
2022/04/21 09:41:11;;;;;;;;;6.00;6.00;;;;;25.54;25.92;100470.97;5054656;28;48417;-89
2022/04/21 09:43:37;;;;;;;;;6.00;5.67;;;;;26.00;24.46;100492.28;5055553;28;46173;-88
2022/04/21 09:46:22;;;;;;;;;6.00;5.00;;;;;26.28;24.93;100485.38;5041957;28;45358;-88
2022/04/21 09:48:53;;;;;;;;;8.00;7.00;;;;;26.39;25.13;100455.97;5056228;27;45270;-89
2022/04/21 09:51:24;;;;;;;;;9.33;8.00;;;;;26.41;24.45;100454.75;5080282;27;48683;-89
2022/04/21 09:53:59;;;;;;;;;9.67;8.00;;;;;26.55;23.63;100485.13;5079498;27;45392;-90
2022/04/21 09:56:29;;;;;;;;;8.00;4.00;;;;;26.56;26.39;100484.97;5087742;27;45702;-89
2022/04/21 09:58:56;;;;;;;;;6.00;6.00;;;;;26.09;24.12;100415.59;5087406;27;45495;-89
2022/04/21 10:01:21;;;;;;;;;5.33;5.33;;;;;25.83;26.34;100358.47;5075285;27;48180;-89
2022/04/21 10:03:48;;;;;;;;;10.67;7.00;;;;;25.99;25.06;100376.72;5078034;27;45304;-90
2022/04/21 10:06:16;;;;;;;;;8.33;6.67;;;;;26.66;24.32;100476.53;5079175;27;45544;-89
2022/04/21 10:08:43;;;;;;;;;6.67;6.67;;;;;26.29;24.77;100405.13;5076264;27;45622;-91
2022/04/21 10:11:09;;;;;;;;;7.67;7.00;;;;;25.94;23.43;100354.53;5081977;27;47269;-88
2022/04/21 10:13:35;;;;;;;;;9.67;8.00;;;;;26.39;24.14;100418.56;5082274;27;45617;-90
2022/04/21 10:16:01;;;;;;;;;9.67;9.00;;;;;26.86;24.94;100464.13;5077454;27;45425;-90
2022/04/21 10:18:27;;;;;;;;;7.00;7.00;;;;;26.40;23.93;100379.25;5079332;27;45617;-87
2022/04/21 10:20:55;;;;;;;;;7.33;7.00;;;;;26.45;23.64;100384.19;5076646;27;47587;-90
2022/04/21 10:23:22;;;;;;;;;8.33;7.00;;;;;26.41;26.82;100369.16;5083788;27;45454;-91
2022/04/21 10:25:58;;;;;;;;;8.00;8.00;;;;;26.16;24.27;100319.28;5080973;27;45544;-90
2022/04/21 10:28:39;;;;;;;;;6.67;6.67;;;;;26.93;27.08;100461.53;5085157;27;45453;-90
2022/04/21 10:31:32;;;;;;;;;9.00;8.00;;;;;26.19;25.91;100330.69;5069771;27;45464;-90
2022/04/21 10:34:07;;;;;;;;;6.00;6.00;;;;;26.95;24.19;100435.69;5081147;27;45345;-90
2022/04/21 10:36:41;;;;;;;;;8.33;7.00;;;;;26.92;23.60;100438.75;5081352;27;45418;-89
2022/04/21 10:39:12;;;;;;;;;9.00;7.00;;;;;26.89;23.34;100430.94;5089563;27;45653;-89
2022/04/21 10:41:38;;;;;;;;;6.00;6.00;;;;;26.15;24.84;100303.91;5072907;27;48053;-90
2022/04/21 10:44:12;;;;;;;;;8.67;6.00;;;;;26.67;26.88;100377.09;5079940;27;45784;-90
2022/04/21 10:46:37;;;;;;;;;6.00;6.00;;;;;26.60;27.40;100300.41;5080846;27;45732;-90
2022/04/21 10:49:03;;;;;;;;;6.00;6.00;;;;;27.65;23.26;100389.97;5083548;27;45429;-88
2022/04/21 10:57:31;;;;;;;;;10.00;6.33;;;;;29.12;20.61;100375.34;5094760;27;45829;-90
2022/04/21 11:00:05;;;;;;;;;5.67;5.67;;;;;30.07;23.91;100417.91;5090837;27;45426;-90
2022/04/21 11:02:45;;;;;;;;;5.33;5.33;;;;;30.77;22.56;100399.41;5088001;27;45540;-91
2022/04/21 11:05:23;;;;;;;;;6.00;6.00;;;;;31.63;22.89;100414.31;5078758;27;45474;-89
2022/04/21 11:07:56;;;;;;;;;4.67;4.67;;;;;31.92;22.40;100357.88;5087743;27;45276;-89
2022/04/21 11:10:38;;;;;;;;;4.33;4.33;;;;;32.61;20.80;100339.78;5080163;27;45592;-91
2022/04/21 11:13:17;;;;;;;;;5.00;5.00;;;;;33.76;20.49;100408.63;5073883;27;47188;-89
2022/04/21 11:15:46;;;;;;;;;7.67;7.00;;;;;34.30;17.01;100405.25;5092679;27;45455;-89
2022/04/21 11:18:14;;;;;;;;;6.33;5.67;;;;;34.37;17.56;100389.41;5088106;27;45520;-92
2022/04/21 11:20:51;;;;;;;;;5.00;5.00;;;;;34.26;18.31;100385.53;5094957;27;45577;-89
2022/04/21 11:23:31;;;;;;;;;6.67;5.67;;;;;33.93;19.80;100395.03;5085743;27;47044;-89
2022/04/21 11:26:08;;;;;;;;;4.33;4.33;;;;;33.18;20.19;100354.50;5091085;27;45708;-91
2022/04/21 11:28:33;;;;;;;;;3.67;3.67;;;;;32.84;20.35;100369.56;5071190;27;45495;-90
2022/04/21 11:31:01;;;;;;;;;5.00;5.00;;;;;32.47;20.56;100361.06;5078629;27;45338;-88
2022/04/21 11:33:27;;;;;;;;;4.00;4.00;;;;;32.12;21.14;100360.59;5087877;27;48609;-92
2022/04/21 11:36:01;;;;;;;;;4.33;4.33;;;;;31.81;21.10;100375.09;5092045;27;45468;-91
2022/04/21 11:38:27;;;;;;;;;5.33;5.33;;;;;31.03;20.51;100293.16;5090981;27;45515;-89
2022/04/21 11:40:53;;;;;;;;;6.00;4.00;;;;;30.91;22.37;100309.47;5078781;27;45526;-90
2022/04/21 11:43:18;;;;;;;;;6.00;4.00;;;;;31.12;21.68;100388.25;5080106;27;47197;-89
2022/04/21 11:46:06;;;;;;;;;5.33;5.33;;;;;30.41;22.68;100329.03;5078300;27;45598;-90
2022/04/21 11:48:37;;;;;;;;;7.33;7.33;;;;;30.47;22.99;100365.88;5094268;27;45440;-88
2022/04/21 11:51:04;;;;;;;;;8.00;6.00;;;;;29.95;20.18;100348.94;5093730;27;45616;-94
2022/04/21 11:53:36;;;;;;;;;8.00;8.00;;;;;29.30;19.86;100309.84;5083311;27;47303;-87
2022/04/21 11:56:04;;;;;;;;;9.33;8.00;;;;;28.87;20.78;100296.19;5074303;27;46199;-88
2022/04/21 11:58:32;;;;;;;;;4.33;4.33;;;;;28.30;23.37;100228.50;5093529;27;45538;-86
2022/04/21 12:06:39;;;;;;;;;6.00;4.00;;;;;28.39;25.46;100334.25;5092993;27;45448;-85
2022/04/21 12:09:05;;;;;;;;;5.00;4.67;;;;;28.39;23.31;100375.38;5084409;27;45381;-86
2022/04/21 12:11:33;;;;;;;;;7.33;7.33;;;;;27.96;21.83;100335.00;5063940;27;45444;-86
2022/04/21 12:13:59;;;;;;;;;6.33;5.33;;;;;28.03;25.21;100358.91;5087578;27;45385;-87
2022/04/21 12:16:49;;;;;;;;;5.33;5.00;;;;;27.72;25.67;100341.63;5093847;27;45418;-87